createdAt,value
2018-03-03T00:00:06.560Z,81.58
2018-03-03T00:02:34.726Z,81.17
2018-03-03T00:05:03.236Z,80.65
2018-03-03T00:07:31.240Z,80.34
2018-03-03T00:09:59.251Z,80.07
2018-03-03T00:12:27.843Z,80.12
2018-03-03T00:14:55.923Z,80.31
2018-03-03T00:17:23.805Z,81.08
2018-03-03T00:19:51.969Z,80.52
2018-03-03T00:22:32.190Z,81.10
2018-03-03T00:25:00.193Z,81.28
2018-03-03T00:27:28.149Z,81.46
2018-03-03T00:29:56.087Z,81.06
2018-03-03T00:32:24.007Z,80.44
2018-03-03T00:34:51.874Z,80.42
2018-03-03T00:37:19.687Z,80.36
2018-03-03T00:39:47.584Z,80.47
2018-03-03T00:42:15.548Z,81.12
2018-03-03T00:44:43.612Z,81.32
2018-03-03T00:47:11.530Z,81.28
2018-03-03T00:49:39.423Z,81.35
2018-03-03T00:52:07.442Z,81.20
2018-03-03T00:54:35.482Z,80.56
2018-03-03T00:57:03.377Z,80.18
2018-03-03T00:59:31.451Z,80.30
2018-03-03T01:02:00.346Z,80.48
2018-03-03T01:04:28.415Z,81.21
2018-03-03T01:06:57.168Z,81.25
2018-03-03T01:09:25.032Z,81.44
2018-03-03T01:11:52.996Z,81.48
2018-03-03T01:14:20.815Z,81.69
2018-03-03T01:16:48.875Z,80.83
2018-03-03T01:19:16.952Z,81.25
2018-03-03T01:21:44.818Z,81.15
2018-03-03T01:24:12.887Z,80.53
2018-03-03T01:26:40.825Z,80.66
2018-03-03T01:29:09.646Z,81.34
2018-03-03T01:31:37.513Z,80.83
2018-03-03T01:34:05.410Z,80.57
2018-03-03T01:36:33.878Z,80.65
2018-03-03T01:39:02.137Z,81.87
2018-03-03T01:41:29.924Z,82.49
2018-03-03T01:43:57.794Z,82.65
2018-03-03T01:46:25.638Z,82.41
2018-03-03T01:48:53.427Z,82.09
2018-03-03T01:51:32.994Z,82.37
2018-03-03T01:54:01.086Z,82.30
2018-03-03T01:56:29.190Z,81.73
2018-03-03T01:58:57.119Z,82.14
2018-03-03T02:01:24.930Z,82.01
2018-03-03T02:03:53.057Z,81.48
2018-03-03T02:06:20.918Z,81.11
2018-03-03T02:08:49.038Z,82.43
2018-03-03T02:11:17.119Z,82.65
2018-03-03T02:13:45.272Z,81.97
2018-03-03T02:16:13.045Z,82.26
2018-03-03T02:18:40.952Z,82.96
2018-03-03T02:21:10.080Z,82.60
2018-03-03T02:23:38.160Z,82.48
2018-03-03T02:26:06.276Z,82.77
2018-03-03T02:28:34.227Z,83.26
2018-03-03T02:31:02.162Z,83.51
2018-03-03T02:33:30.030Z,83.08
2018-03-03T02:35:57.873Z,83.44
2018-03-03T02:38:25.862Z,83.51
2018-03-03T02:40:53.756Z,82.75
2018-03-03T02:43:21.827Z,83.25
2018-03-03T02:45:49.913Z,83.41
2018-03-03T02:48:18.005Z,83.13
2018-03-03T02:50:46.062Z,83.03
2018-03-03T02:53:14.127Z,85.05
2018-03-03T02:55:42.058Z,85.60
2018-03-03T02:58:09.975Z,85.36
2018-03-03T03:00:38.034Z,85.58
2018-03-03T03:03:06.155Z,85.37
2018-03-03T03:05:34.076Z,85.43
2018-03-03T03:08:02.153Z,86.09
2018-03-03T03:10:30.222Z,86.03
2018-03-03T03:12:58.125Z,85.70
2018-03-03T03:15:26.527Z,85.78
2018-03-03T03:17:54.508Z,85.97
2018-03-03T03:20:22.425Z,85.85
2018-03-03T03:22:50.568Z,85.23
2018-03-03T03:25:18.409Z,85.08
2018-03-03T03:27:46.774Z,85.13
2018-03-03T03:30:14.866Z,84.66
2018-03-03T03:32:43.381Z,84.59
2018-03-03T03:35:11.451Z,84.33
2018-03-03T03:37:39.468Z,84.17
2018-03-03T03:40:07.584Z,84.37
2018-03-03T03:42:36.148Z,84.08
2018-03-03T03:45:03.956Z,84.18
2018-03-03T03:47:31.829Z,84.49
2018-03-03T03:50:00.902Z,84.39
2018-03-03T03:52:28.969Z,84.12
2018-03-03T03:54:57.051Z,83.83
2018-03-03T03:57:24.955Z,83.57
2018-03-03T03:59:53.341Z,83.67
2018-03-03T04:02:22.083Z,83.97
2018-03-03T04:04:50.003Z,84.34
2018-03-03T04:07:18.096Z,84.16
2018-03-03T04:09:45.962Z,84.51
2018-03-03T04:12:13.932Z,84.76
2018-03-03T04:14:42.522Z,84.43
2018-03-03T04:17:10.415Z,85.24
2018-03-03T04:19:38.485Z,85.41
2018-03-03T04:22:06.453Z,85.71
2018-03-03T04:24:34.591Z,85.90
2018-03-03T04:27:02.411Z,85.60
2018-03-03T04:29:30.471Z,85.28
2018-03-03T04:31:58.489Z,84.85
2018-03-03T04:34:26.817Z,84.85
2018-03-03T04:36:54.589Z,85.12
2018-03-03T04:39:22.737Z,85.30
2018-03-03T04:41:50.928Z,85.14
2018-03-03T04:44:18.871Z,84.78
2018-03-03T04:46:47.746Z,84.29
2018-03-03T04:49:16.451Z,84.09
2018-03-03T04:51:44.547Z,83.96
2018-03-03T04:54:12.618Z,83.87
2018-03-03T04:56:40.688Z,83.99
2018-03-03T04:59:14.048Z,84.09
2018-03-03T05:01:58.912Z,84.34
2018-03-03T05:04:29.904Z,84.17
2018-03-03T05:07:18.478Z,85.00
2018-03-03T05:09:46.518Z,85.07
2018-03-03T05:12:18.085Z,84.63
2018-03-03T05:14:52.101Z,84.03
2018-03-03T05:17:25.990Z,82.99
2018-03-03T05:19:59.580Z,82.27
2018-03-03T05:22:33.195Z,81.75
2018-03-03T05:25:17.113Z,81.93
2018-03-03T05:27:50.567Z,82.67
2018-03-03T05:30:35.296Z,82.92
2018-03-03T05:33:08.900Z,82.52
2018-03-03T05:35:55.503Z,82.54
2018-03-03T05:38:42.172Z,82.46
2018-03-03T05:41:15.783Z,82.67
2018-03-03T05:43:49.422Z,82.97
2018-03-03T05:46:22.941Z,83.22
2018-03-03T05:48:56.386Z,83.19
2018-03-03T05:51:24.481Z,83.56
2018-03-03T05:54:09.156Z,83.30
2018-03-03T05:56:47.056Z,83.20
2018-03-03T05:59:34.850Z,82.60
2018-03-03T06:02:06.321Z,82.53
2018-03-03T06:04:45.155Z,82.86
2018-03-03T06:07:29.925Z,82.89
2018-03-03T06:09:57.995Z,82.99
2018-03-03T06:12:26.054Z,83.23
2018-03-03T06:14:53.898Z,82.19
2018-03-03T06:17:21.915Z,82.13
2018-03-03T06:19:49.957Z,80.20
2018-03-03T06:22:18.080Z,78.39
2018-03-03T06:24:45.992Z,76.53
2018-03-03T06:27:14.906Z,76.91
2018-03-03T06:29:44.209Z,78.03
2018-03-03T06:32:12.192Z,78.84
2018-03-03T06:34:40.332Z,78.96
2018-03-03T06:37:08.426Z,79.52
2018-03-03T06:39:36.275Z,79.97
2018-03-03T06:42:05.161Z,80.31
2018-03-03T06:44:32.967Z,80.11
2018-03-03T06:47:00.840Z,79.70
2018-03-03T06:49:28.770Z,80.98
2018-03-03T06:51:57.062Z,80.45
2018-03-03T06:54:25.072Z,80.57
2018-03-03T06:56:53.214Z,82.00
2018-03-03T06:59:21.576Z,80.95
2018-03-03T07:01:49.717Z,80.06
2018-03-03T07:04:17.541Z,79.69
2018-03-03T07:06:45.596Z,79.05
2018-03-03T07:09:13.578Z,78.77
2018-03-03T07:11:41.858Z,78.36
2018-03-03T07:14:09.923Z,78.84
2018-03-03T07:16:38.794Z,78.21
2018-03-03T07:19:06.800Z,77.80
2018-03-03T07:21:34.875Z,77.58
2018-03-03T07:24:02.772Z,77.62
2018-03-03T07:26:30.589Z,77.25
2018-03-03T07:28:58.707Z,76.97
2018-03-03T07:31:26.725Z,78.67
2018-03-03T07:33:54.736Z,78.14
2018-03-03T07:36:23.429Z,77.77
2018-03-03T07:38:52.051Z,77.04
2018-03-03T07:41:20.212Z,75.78
2018-03-03T07:43:48.311Z,75.34
2018-03-03T07:46:16.383Z,76.21
2018-03-03T07:48:45.791Z,74.68
2018-03-03T07:51:13.667Z,73.77
2018-03-03T07:53:41.723Z,72.04
2018-03-03T07:56:09.744Z,73.19
2018-03-03T07:58:49.655Z,73.27
2018-03-03T08:01:17.797Z,71.88
2018-03-03T08:03:45.643Z,70.00
2018-03-03T08:06:13.657Z,68.51
2018-03-03T08:08:41.676Z,69.46
2018-03-03T08:11:09.803Z,66.50
2018-03-03T08:13:37.873Z,65.38
2018-03-03T08:16:06.149Z,64.60
2018-03-03T08:18:35.064Z,64.56
2018-03-03T08:21:03.760Z,64.67
2018-03-03T08:23:31.777Z,65.32
2018-03-03T08:25:59.870Z,66.29
2018-03-03T08:28:27.942Z,66.16
2018-03-03T08:30:55.697Z,69.86
2018-03-03T08:33:23.779Z,70.71
2018-03-03T08:35:51.834Z,69.22
2018-03-03T08:38:19.904Z,68.21
2018-03-03T08:40:47.773Z,67.62
2018-03-03T08:43:15.912Z,68.51
2018-03-03T08:45:43.912Z,67.95
2018-03-03T08:48:11.902Z,67.93
2018-03-03T08:50:40.038Z,67.44
2018-03-03T08:53:07.905Z,66.23
2018-03-03T08:55:35.914Z,67.64
2018-03-03T08:58:03.866Z,64.45
2018-03-03T09:00:31.559Z,64.56
2018-03-03T09:02:59.450Z,65.13
2018-03-03T09:05:27.158Z,67.84
2018-03-03T09:07:54.850Z,69.42
2018-03-03T09:10:23.143Z,69.21
2018-03-03T09:12:50.853Z,71.09
2018-03-03T09:15:18.588Z,72.01
2018-03-03T09:17:46.359Z,72.00
2018-03-03T09:20:14.051Z,71.18
2018-03-03T09:22:42.690Z,70.87
2018-03-03T09:25:10.391Z,69.99
2018-03-03T09:27:38.228Z,68.71
2018-03-03T09:30:06.883Z,69.52
2018-03-03T09:32:34.694Z,69.60
2018-03-03T09:35:02.400Z,69.39
2018-03-03T09:37:30.161Z,69.81
2018-03-03T09:39:58.648Z,69.81
2018-03-03T09:42:27.255Z,68.80
2018-03-03T09:44:54.977Z,68.31
2018-03-03T09:47:22.774Z,66.86
2018-03-03T09:49:50.593Z,67.16
2018-03-03T09:52:18.322Z,67.38
2018-03-03T09:54:46.143Z,69.10
2018-03-03T09:57:13.897Z,68.23
2018-03-03T09:59:41.642Z,66.59
2018-03-03T10:02:09.352Z,65.96
2018-03-03T10:04:37.137Z,66.32
2018-03-03T10:07:04.841Z,65.49
2018-03-03T10:09:32.656Z,63.93
2018-03-03T10:12:00.370Z,62.80
2018-03-03T10:14:28.084Z,63.19
2018-03-03T10:16:55.851Z,62.78
2018-03-03T10:19:23.562Z,64.85
2018-03-03T10:21:51.359Z,63.11
2018-03-03T10:24:19.047Z,62.67
2018-03-03T10:26:46.838Z,63.53
2018-03-03T10:29:14.617Z,64.05
2018-03-03T10:31:42.781Z,63.26
2018-03-03T10:34:10.505Z,61.83
2018-03-03T10:36:38.266Z,60.05
2018-03-03T10:39:06.088Z,59.10
2018-03-03T10:41:33.816Z,58.45
2018-03-03T10:44:01.590Z,58.21
2018-03-03T10:46:30.160Z,57.36
2018-03-03T10:48:57.924Z,56.71
2018-03-03T10:51:25.620Z,56.37
2018-03-03T10:53:54.284Z,56.42
2018-03-03T10:56:22.327Z,55.87
2018-03-03T10:58:50.069Z,54.26
2018-03-03T11:01:17.882Z,53.66
2018-03-03T11:03:45.575Z,52.77
2018-03-03T11:06:13.329Z,52.68
2018-03-03T11:08:41.070Z,53.00
2018-03-03T11:11:09.014Z,52.47
2018-03-03T11:13:36.727Z,51.86
2018-03-03T11:16:04.540Z,53.09
2018-03-03T11:18:33.382Z,53.65
2018-03-03T11:21:01.090Z,53.67
2018-03-03T11:23:28.845Z,51.75
2018-03-03T11:25:56.611Z,50.13
2018-03-03T11:28:24.359Z,52.28
2018-03-03T11:30:52.083Z,50.40
2018-03-03T11:33:19.909Z,51.10
2018-03-03T11:35:47.613Z,49.21
2018-03-03T11:38:15.331Z,47.93
2018-03-03T11:40:43.088Z,47.56
2018-03-03T11:43:11.337Z,48.32
2018-03-03T11:45:39.004Z,47.24
2018-03-03T11:48:06.793Z,48.26
2018-03-03T11:50:34.501Z,48.72
2018-03-03T11:53:02.260Z,49.44
2018-03-03T11:55:29.974Z,49.84
2018-03-03T11:57:57.764Z,47.13
2018-03-03T12:00:25.537Z,47.76
2018-03-03T12:02:53.261Z,49.96
2018-03-03T12:05:21.068Z,49.33
2018-03-03T12:07:48.782Z,48.00
2018-03-03T12:10:16.495Z,46.41
2018-03-03T12:12:44.311Z,47.26
2018-03-03T12:15:12.048Z,48.93
2018-03-03T12:17:39.796Z,50.06
2018-03-03T12:20:07.516Z,47.42
2018-03-03T12:22:35.296Z,46.36
2018-03-03T12:25:03.045Z,46.28
2018-03-03T12:27:30.899Z,46.92
2018-03-03T12:29:58.632Z,46.00
2018-03-03T12:32:26.409Z,47.03
2018-03-03T12:34:54.147Z,47.57
2018-03-03T12:37:22.132Z,45.50
2018-03-03T12:39:49.880Z,46.68
2018-03-03T12:42:17.620Z,46.51
2018-03-03T12:44:45.396Z,44.22
2018-03-03T12:47:13.168Z,45.25
2018-03-03T12:49:40.927Z,45.46
2018-03-03T12:52:08.667Z,45.08
2018-03-03T12:54:36.406Z,45.84
2018-03-03T12:57:04.112Z,44.80
2018-03-03T12:59:31.885Z,44.51
2018-03-03T13:01:59.612Z,44.02
2018-03-03T13:04:27.330Z,44.38
2018-03-03T13:06:55.126Z,43.85
2018-03-03T13:09:22.832Z,44.03
2018-03-03T13:11:51.191Z,44.59
2018-03-03T13:14:18.875Z,44.69
2018-03-03T13:16:46.641Z,43.73
2018-03-03T13:19:14.407Z,43.79
2018-03-03T13:21:42.220Z,45.02
2018-03-03T13:24:10.263Z,44.33
2018-03-03T13:26:39.164Z,43.96
2018-03-03T13:29:06.905Z,44.52
2018-03-03T13:31:34.664Z,43.85
2018-03-03T13:34:02.400Z,45.38
2018-03-03T13:36:30.197Z,44.89
2018-03-03T13:38:57.963Z,45.19
2018-03-03T13:41:25.732Z,44.63
2018-03-03T13:43:53.498Z,44.38
2018-03-03T13:46:21.264Z,43.79
2018-03-03T13:48:48.969Z,44.35
2018-03-03T13:51:16.725Z,44.10
2018-03-03T13:53:44.527Z,44.09
2018-03-03T13:56:12.953Z,43.09
2018-03-03T13:58:40.761Z,43.33
2018-03-03T14:01:09.551Z,44.24
2018-03-03T14:03:37.396Z,44.69
2018-03-03T14:06:05.108Z,44.70
2018-03-03T14:08:32.862Z,44.99
2018-03-03T14:11:00.693Z,43.89
2018-03-03T14:13:28.578Z,44.75
2018-03-03T14:15:56.396Z,43.27
2018-03-03T14:18:24.120Z,43.30
2018-03-03T14:20:51.888Z,44.22
2018-03-03T14:23:19.632Z,43.58
2018-03-03T14:25:47.349Z,42.94
2018-03-03T14:28:15.211Z,42.96
2018-03-03T14:30:42.945Z,45.91
2018-03-03T14:33:10.674Z,43.77
2018-03-03T14:35:38.410Z,42.63
2018-03-03T14:38:06.184Z,44.62
2018-03-03T14:40:33.907Z,45.90
2018-03-03T14:43:01.646Z,45.39
2018-03-03T14:45:29.417Z,45.67
2018-03-03T14:47:57.183Z,46.21
2018-03-03T14:50:24.935Z,46.79
2018-03-03T14:52:52.660Z,45.62
2018-03-03T14:55:20.354Z,46.36
2018-03-03T14:57:48.132Z,47.43
2018-03-03T15:00:15.833Z,47.06
2018-03-03T15:02:43.635Z,47.96
2018-03-03T15:05:11.377Z,49.15
2018-03-03T15:07:39.408Z,50.75
2018-03-03T15:10:07.146Z,50.75
2018-03-03T15:12:34.905Z,51.08
2018-03-03T15:15:02.585Z,50.96
2018-03-03T15:17:30.318Z,51.16
2018-03-03T15:19:58.077Z,52.23
2018-03-03T15:22:25.758Z,52.98
2018-03-03T15:24:53.528Z,53.63
2018-03-03T15:27:21.304Z,54.45
2018-03-03T15:29:49.074Z,55.28
2018-03-03T15:32:18.054Z,59.83
2018-03-03T15:34:45.903Z,60.33
2018-03-03T15:37:13.697Z,60.10
2018-03-03T15:39:41.491Z,61.46
2018-03-03T15:42:09.341Z,61.73
2018-03-03T15:44:37.189Z,61.99
2018-03-03T15:47:04.887Z,63.18
2018-03-03T15:49:33.436Z,63.50
2018-03-03T15:52:02.348Z,64.77
2018-03-03T15:54:30.194Z,64.70
2018-03-03T15:56:57.922Z,64.53
2018-03-03T15:59:25.721Z,62.34
2018-03-03T16:01:53.465Z,62.13
2018-03-03T16:04:21.249Z,62.59
2018-03-03T16:06:49.036Z,62.93
2018-03-03T16:09:16.776Z,63.19
2018-03-03T16:11:44.587Z,63.52
2018-03-03T16:14:12.314Z,63.65
2018-03-03T16:16:40.039Z,62.79
2018-03-03T16:19:07.898Z,62.74
2018-03-03T16:21:35.672Z,62.78
2018-03-03T16:24:03.497Z,63.33
2018-03-03T16:26:31.257Z,64.57
2018-03-03T16:28:58.984Z,65.75
2018-03-03T16:31:26.768Z,66.39
2018-03-03T16:33:55.039Z,67.43
2018-03-03T16:36:22.881Z,67.90
2018-03-03T16:38:50.570Z,68.44
2018-03-03T16:41:18.499Z,69.19
2018-03-03T16:43:46.304Z,69.26
2018-03-03T16:46:14.118Z,69.54
2018-03-03T16:48:41.897Z,70.67
2018-03-03T16:51:09.746Z,70.37
2018-03-03T16:53:37.495Z,68.70
2018-03-03T16:56:05.378Z,67.84
2018-03-03T16:58:33.121Z,66.99
2018-03-03T17:01:00.929Z,67.61
2018-03-03T17:03:28.828Z,67.49
2018-03-03T17:05:56.689Z,66.83
2018-03-03T17:08:24.469Z,67.27
2018-03-03T17:10:52.240Z,68.20
2018-03-03T17:13:20.174Z,69.77
2018-03-03T17:15:47.960Z,71.46
2018-03-03T17:18:15.926Z,71.47
2018-03-03T17:20:44.946Z,71.38
2018-03-03T17:23:12.714Z,72.47
2018-03-03T17:25:40.542Z,73.33
2018-03-03T17:28:08.261Z,73.95
2018-03-03T17:30:36.090Z,74.14
2018-03-03T17:33:03.845Z,74.86
2018-03-03T17:35:31.692Z,75.34
2018-03-03T17:38:00.380Z,75.87
2018-03-03T17:40:28.249Z,74.59
2018-03-03T17:42:56.036Z,75.06
2018-03-03T17:45:24.906Z,75.34
2018-03-03T17:47:52.658Z,75.75
2018-03-03T17:50:20.502Z,75.66
2018-03-03T17:52:48.310Z,75.74
2018-03-03T17:55:16.176Z,74.69
2018-03-03T17:57:44.963Z,73.54
2018-03-03T18:00:12.823Z,73.13
2018-03-03T18:02:40.602Z,73.14
2018-03-03T18:05:08.451Z,72.38
2018-03-03T18:07:36.221Z,72.82
2018-03-03T18:10:04.075Z,73.13
2018-03-03T18:12:31.840Z,73.93
2018-03-03T18:14:59.582Z,73.89
2018-03-03T18:17:27.355Z,74.10
2018-03-03T18:19:55.051Z,74.45
2018-03-03T18:22:22.829Z,75.69
2018-03-03T18:24:50.538Z,75.89
2018-03-03T18:27:18.244Z,77.74
2018-03-03T18:29:46.066Z,76.66
2018-03-03T18:32:13.983Z,76.72
2018-03-03T18:34:41.796Z,77.35
2018-03-03T18:37:09.511Z,77.42
2018-03-03T18:39:37.416Z,77.28
2018-03-03T18:42:05.129Z,77.55
2018-03-03T18:44:32.965Z,78.27
2018-03-03T18:47:00.837Z,79.10
2018-03-03T18:49:28.601Z,78.88
2018-03-03T18:51:56.343Z,78.38
2018-03-03T18:54:24.069Z,78.42
2018-03-03T18:56:51.829Z,78.90
2018-03-03T18:59:20.110Z,78.34
2018-03-03T19:01:47.860Z,79.74
2018-03-03T19:04:15.703Z,79.60
2018-03-03T19:06:43.406Z,78.74
2018-03-03T19:09:11.099Z,77.74
2018-03-03T19:11:38.916Z,77.17
2018-03-03T19:14:06.712Z,76.99
2018-03-03T19:16:34.774Z,77.49
2018-03-03T19:19:02.535Z,76.82
2018-03-03T19:21:30.657Z,77.63
2018-03-03T19:23:58.549Z,77.90
2018-03-03T19:26:29.387Z,78.18
2018-03-03T19:28:59.735Z,78.57
2018-03-03T19:31:27.557Z,78.72
2018-03-03T19:33:55.394Z,79.12
2018-03-03T19:36:23.193Z,79.10
2018-03-03T19:38:51.266Z,79.98
2018-03-03T19:41:19.146Z,80.33
2018-03-03T19:43:47.845Z,80.65
2018-03-03T19:46:16.535Z,79.63
2018-03-03T19:48:44.297Z,79.22
2018-03-03T19:51:12.901Z,79.05
2018-03-03T19:53:40.725Z,78.34
2018-03-03T19:56:08.570Z,77.96
2018-03-03T19:58:36.598Z,77.61
2018-03-03T20:01:05.274Z,77.21
2018-03-03T20:03:33.023Z,77.78
2018-03-03T20:06:00.775Z,77.74
2018-03-03T20:08:28.541Z,77.98
2018-03-03T20:10:56.267Z,79.09
2018-03-03T20:13:24.002Z,79.86
2018-03-03T20:15:52.404Z,79.71
2018-03-03T20:18:21.119Z,80.15
2018-03-03T20:20:48.802Z,80.23
2018-03-03T20:23:16.529Z,80.51
2018-03-03T20:25:44.237Z,79.99
2018-03-03T20:28:12.025Z,80.22
2018-03-03T20:30:39.721Z,80.49
2018-03-03T20:33:07.527Z,80.31
2018-03-03T20:35:35.347Z,80.36
2018-03-03T20:38:03.058Z,80.96
2018-03-03T20:40:30.793Z,80.60
2018-03-03T20:42:58.546Z,80.63
2018-03-03T20:45:26.388Z,80.16
2018-03-03T20:47:54.155Z,79.73
2018-03-03T20:50:21.941Z,79.59
2018-03-03T20:52:49.770Z,79.59
2018-03-03T20:55:17.608Z,80.04
2018-03-03T20:57:45.469Z,79.82
2018-03-03T21:00:13.467Z,81.94
2018-03-03T21:02:41.222Z,81.23
2018-03-03T21:05:09.114Z,80.62
2018-03-03T21:07:36.948Z,80.45
2018-03-03T21:10:04.835Z,80.92
2018-03-03T21:12:32.661Z,82.13
2018-03-03T21:15:00.452Z,81.22
2018-03-03T21:17:28.249Z,80.71
2018-03-03T21:19:56.095Z,81.06
2018-03-03T21:22:23.894Z,80.93
2018-03-03T21:24:51.630Z,81.00
2018-03-03T21:27:19.319Z,81.32
2018-03-03T21:29:47.095Z,81.26
2018-03-03T21:32:14.783Z,81.33
2018-03-03T21:34:42.662Z,81.39
2018-03-03T21:37:10.382Z,81.55
2018-03-03T21:39:38.089Z,81.17
2018-03-03T21:42:05.860Z,81.39
2018-03-03T21:44:33.567Z,82.13
2018-03-03T21:47:01.407Z,82.14
2018-03-03T21:49:29.171Z,81.75
2018-03-03T21:51:56.899Z,81.41
2018-03-03T21:54:24.691Z,81.45
2018-03-03T21:56:52.395Z,81.65
2018-03-03T21:59:20.197Z,82.04
2018-03-03T22:01:48.715Z,81.75
2018-03-03T22:04:16.535Z,82.12
2018-03-03T22:06:44.297Z,82.00
2018-03-03T22:09:12.003Z,81.55
2018-03-03T22:11:39.723Z,81.90
2018-03-03T22:14:07.417Z,81.94
2018-03-03T22:16:35.151Z,82.43
2018-03-03T22:19:02.918Z,82.22
2018-03-03T22:21:30.679Z,81.94
2018-03-03T22:23:58.440Z,81.70
2018-03-03T22:26:26.100Z,82.46
2018-03-03T22:28:53.785Z,82.38
2018-03-03T22:31:21.720Z,82.82
2018-03-03T22:33:50.388Z,82.77
2018-03-03T22:36:18.177Z,82.80
2018-03-03T22:38:45.853Z,83.35
2018-03-03T22:41:13.623Z,84.52
2018-03-03T22:43:41.303Z,84.30
2018-03-03T22:46:09.061Z,83.71
2018-03-03T22:48:36.864Z,82.53
2018-03-03T22:51:04.568Z,81.85
2018-03-03T22:53:32.323Z,81.76
2018-03-03T22:56:00.033Z,81.49
2018-03-03T22:58:27.777Z,81.66
2018-03-03T23:00:55.499Z,81.49
2018-03-03T23:03:23.217Z,81.61
2018-03-03T23:05:51.005Z,81.43
2018-03-03T23:08:18.720Z,82.12
2018-03-03T23:10:46.501Z,81.84
2018-03-03T23:13:14.214Z,83.04
2018-03-03T23:15:41.975Z,82.88
2018-03-03T23:18:09.643Z,82.90
2018-03-03T23:20:37.411Z,83.05
2018-03-03T23:23:05.099Z,83.28
2018-03-03T23:25:33.183Z,83.47
2018-03-03T23:28:00.869Z,83.58
2018-03-03T23:30:28.588Z,82.71
2018-03-03T23:32:56.291Z,82.10
2018-03-03T23:35:24.005Z,81.26
2018-03-03T23:37:51.764Z,80.58
2018-03-03T23:40:19.431Z,80.44
2018-03-03T23:42:47.168Z,80.17
2018-03-03T23:45:14.906Z,80.44
2018-03-03T23:47:42.692Z,80.28
2018-03-03T23:50:10.496Z,80.10
2018-03-03T23:52:38.237Z,80.40
2018-03-03T23:55:06.003Z,80.11
2018-03-03T23:57:33.837Z,79.76
